sensor_id;sensor_type;location;lat;lon;timestamp;temperature;humidity
19654;DHT22;9975;48.046;7.804;2023-06-10T01:56:30;18.10;90.50
19654;DHT22;9975;48.046;7.804;2023-06-10T01:58:55;18.10;91.30
19654;DHT22;9975;48.046;7.804;2023-06-10T02:01:25;18.00;91.90
19654;DHT22;9975;48.046;7.804;2023-06-10T02:03:51;18.00;91.40
19654;DHT22;9975;48.046;7.804;2023-06-10T02:06:16;18.00;92.50
19654;DHT22;9975;48.046;7.804;2023-06-10T02:08:42;18.00;92.20
19654;DHT22;9975;48.046;7.804;2023-06-10T02:11:08;17.90;93.40
19654;DHT22;9975;48.046;7.804;2023-06-10T02:13:33;17.90;94.20
19654;DHT22;9975;48.046;7.804;2023-06-10T02:15:59;17.90;93.50
19654;DHT22;9975;48.046;7.804;2023-06-10T02:18:25;17.70;93.60
19654;DHT22;9975;48.046;7.804;2023-06-10T02:20:52;17.80;94.40
19654;DHT22;9975;48.046;7.804;2023-06-10T02:23:18;17.80;94.70
19654;DHT22;9975;48.046;7.804;2023-06-10T02:25:43;17.70;94.70
19654;DHT22;9975;48.046;7.804;2023-06-10T02:28:09;17.70;94.60
19654;DHT22;9975;48.046;7.804;2023-06-10T02:30:35;17.60;94.80
19654;DHT22;9975;48.046;7.804;2023-06-10T02:33:01;17.50;95.20
19654;DHT22;9975;48.046;7.804;2023-06-10T02:35:26;17.50;96.10
19654;DHT22;9975;48.046;7.804;2023-06-10T02:37:52;17.40;96.10
19654;DHT22;9975;48.046;7.804;2023-06-10T02:40:18;17.30;97.40
19654;DHT22;9975;48.046;7.804;2023-06-10T02:42:43;17.30;99.10
19654;DHT22;9975;48.046;7.804;2023-06-10T02:45:09;17.30;98.70
19654;DHT22;9975;48.046;7.804;2023-06-10T02:47:38;17.20;99.20
19654;DHT22;9975;48.046;7.804;2023-06-10T02:50:05;17.10;99.90
19654;DHT22;9975;48.046;7.804;2023-06-10T02:52:31;17.20;99.90
19654;DHT22;9975;48.046;7.804;2023-06-10T02:54:56;17.20;99.90
19654;DHT22;9975;48.046;7.804;2023-06-10T02:57:22;17.20;99.90
19654;DHT22;9975;48.046;7.804;2023-06-10T02:59:48;17.00;99.90
19654;DHT22;9975;48.046;7.804;2023-06-10T03:02:14;17.00;99.90
19654;DHT22;9975;48.046;7.804;2023-06-10T03:04:40;16.90;99.90
19654;DHT22;9975;48.046;7.804;2023-06-10T03:07:06;16.90;99.90
19654;DHT22;9975;48.046;7.804;2023-06-10T03:09:32;16.90;99.90
19654;DHT22;9975;48.046;7.804;2023-06-10T03:11:58;16.90;99.90
19654;DHT22;9975;48.046;7.804;2023-06-10T03:14:25;16.90;99.90
19654;DHT22;9975;48.046;7.804;2023-06-10T03:16:50;16.80;99.90
19654;DHT22;9975;48.046;7.804;2023-06-10T03:19:16;16.70;99.90
19654;DHT22;9975;48.046;7.804;2023-06-10T03:21:43;16.60;99.90
19654;DHT22;9975;48.046;7.804;2023-06-10T03:24:09;16.60;99.90
19654;DHT22;9975;48.046;7.804;2023-06-10T03:26:36;16.60;99.90
19654;DHT22;9975;48.046;7.804;2023-06-10T03:29:02;16.60;99.90
19654;DHT22;9975;48.046;7.804;2023-06-10T03:31:27;16.40;99.90
19654;DHT22;9975;48.046;7.804;2023-06-10T03:33:53;16.40;99.90
19654;DHT22;9975;48.046;7.804;2023-06-10T03:36:18;16.40;99.90
19654;DHT22;9975;48.046;7.804;2023-06-10T03:38:44;16.30;99.90
19654;DHT22;9975;48.046;7.804;2023-06-10T03:41:10;16.40;99.90
19654;DHT22;9975;48.046;7.804;2023-06-10T03:43:35;16.30;99.90
19654;DHT22;9975;48.046;7.804;2023-06-10T03:46:01;16.30;99.90
19654;DHT22;9975;48.046;7.804;2023-06-10T03:48:26;16.20;99.90
19654;DHT22;9975;48.046;7.804;2023-06-10T03:50:52;16.10;99.90
19654;DHT22;9975;48.046;7.804;2023-06-10T03:53:18;16.00;99.90
19654;DHT22;9975;48.046;7.804;2023-06-10T03:55:44;16.00;99.90
19654;DHT22;9975;48.046;7.804;2023-06-10T03:58:11;16.00;99.90
19654;DHT22;9975;48.046;7.804;2023-06-10T04:00:38;15.90;99.90
19654;DHT22;9975;48.046;7.804;2023-06-10T04:03:10;15.90;99.90
19654;DHT22;9975;48.046;7.804;2023-06-10T04:05:40;15.90;99.90
19654;DHT22;9975;48.046;7.804;2023-06-10T04:08:05;15.90;99.90
19654;DHT22;9975;48.046;7.804;2023-06-10T04:10:32;15.90;99.90
19654;DHT22;9975;48.046;7.804;2023-06-10T04:12:58;16.00;99.90
19654;DHT22;9975;48.046;7.804;2023-06-10T04:15:23;16.00;99.90
19654;DHT22;9975;48.046;7.804;2023-06-10T04:17:49;16.00;99.90
19654;DHT22;9975;48.046;7.804;2023-06-10T04:20:15;16.00;99.90
19654;DHT22;9975;48.046;7.804;2023-06-10T04:22:41;16.00;99.90
19654;DHT22;9975;48.046;7.804;2023-06-10T04:25:06;16.10;99.90
19654;DHT22;9975;48.046;7.804;2023-06-10T04:27:33;16.00;99.90
19654;DHT22;9975;48.046;7.804;2023-06-10T04:29:58;16.10;99.90
19654;DHT22;9975;48.046;7.804;2023-06-10T04:32:24;16.10;99.90
19654;DHT22;9975;48.046;7.804;2023-06-10T04:34:49;16.10;99.90
19654;DHT22;9975;48.046;7.804;2023-06-10T04:37:15;16.10;99.90
19654;DHT22;9975;48.046;7.804;2023-06-10T04:39:41;16.10;99.90
19654;DHT22;9975;48.046;7.804;2023-06-10T04:42:07;16.20;99.90
19654;DHT22;9975;48.046;7.804;2023-06-10T04:44:32;16.20;99.90
19654;DHT22;9975;48.046;7.804;2023-06-10T04:46:58;16.20;99.90
19654;DHT22;9975;48.046;7.804;2023-06-10T04:49:23;16.30;99.90
19654;DHT22;9975;48.046;7.804;2023-06-10T04:51:49;16.30;99.90
19654;DHT22;9975;48.046;7.804;2023-06-10T04:54:16;16.40;99.90
19654;DHT22;9975;48.046;7.804;2023-06-10T04:56:42;16.40;99.90
19654;DHT22;9975;48.046;7.804;2023-06-10T04:59:07;16.50;99.90
19654;DHT22;9975;48.046;7.804;2023-06-10T05:01:33;16.50;99.90
19654;DHT22;9975;48.046;7.804;2023-06-10T05:03:59;16.60;99.90
19654;DHT22;9975;48.046;7.804;2023-06-10T05:06:24;16.60;99.90
19654;DHT22;9975;48.046;7.804;2023-06-10T05:08:50;16.80;99.90
19654;DHT22;9975;48.046;7.804;2023-06-10T05:11:16;16.80;99.90
19654;DHT22;9975;48.046;7.804;2023-06-10T05:13:42;16.90;99.90
19654;DHT22;9975;48.046;7.804;2023-06-10T05:16:08;16.90;99.90
19654;DHT22;9975;48.046;7.804;2023-06-10T05:18:34;17.00;99.90
19654;DHT22;9975;48.046;7.804;2023-06-10T05:21:01;17.00;99.90
19654;DHT22;9975;48.046;7.804;2023-06-10T05:23:27;17.20;99.90
19654;DHT22;9975;48.046;7.804;2023-06-10T05:25:53;17.20;99.90
19654;DHT22;9975;48.046;7.804;2023-06-10T05:28:19;17.30;99.90
19654;DHT22;9975;48.046;7.804;2023-06-10T05:30:45;17.30;99.90
19654;DHT22;9975;48.046;7.804;2023-06-10T05:33:10;17.50;99.90
19654;DHT22;9975;48.046;7.804;2023-06-10T05:35:36;17.50;99.90
19654;DHT22;9975;48.046;7.804;2023-06-10T05:38:02;17.60;99.90
19654;DHT22;9975;48.046;7.804;2023-06-10T05:40:28;17.70;99.90
19654;DHT22;9975;48.046;7.804;2023-06-10T05:42:53;17.80;99.90
19654;DHT22;9975;48.046;7.804;2023-06-10T05:45:19;17.90;99.90
19654;DHT22;9975;48.046;7.804;2023-06-10T05:47:45;18.00;99.90
19654;DHT22;9975;48.046;7.804;2023-06-10T05:50:10;18.10;99.90
19654;DHT22;9975;48.046;7.804;2023-06-10T05:52:36;18.10;99.90
19654;DHT22;9975;48.046;7.804;2023-06-10T05:55:05;18.20;99.90
19654;DHT22;9975;48.046;7.804;2023-06-10T05:57:30;18.40;99.90
19654;DHT22;9975;48.046;7.804;2023-06-10T05:59:56;18.40;99.90
19654;DHT22;9975;48.046;7.804;2023-06-10T06:02:22;18.50;99.90
19654;DHT22;9975;48.046;7.804;2023-06-10T06:04:47;18.60;99.90
19654;DHT22;9975;48.046;7.804;2023-06-10T06:07:13;18.80;99.90
19654;DHT22;9975;48.046;7.804;2023-06-10T06:09:38;18.90;99.90
19654;DHT22;9975;48.046;7.804;2023-06-10T06:12:04;19.00;99.90
19654;DHT22;9975;48.046;7.804;2023-06-10T06:14:32;19.10;99.70
19654;DHT22;9975;48.046;7.804;2023-06-10T06:16:57;19.10;99.20
19654;DHT22;9975;48.046;7.804;2023-06-10T06:19:23;19.20;98.70
19654;DHT22;9975;48.046;7.804;2023-06-10T06:21:49;19.20;98.00
19654;DHT22;9975;48.046;7.804;2023-06-10T06:24:16;19.30;98.10
19654;DHT22;9975;48.046;7.804;2023-06-10T06:26:42;19.40;97.80
19654;DHT22;9975;48.046;7.804;2023-06-10T06:29:07;19.60;98.10
19654;DHT22;9975;48.046;7.804;2023-06-10T06:31:33;19.70;97.90
19654;DHT22;9975;48.046;7.804;2023-06-10T06:33:58;19.90;97.20
19654;DHT22;9975;48.046;7.804;2023-06-10T06:36:24;19.90;96.60
19654;DHT22;9975;48.046;7.804;2023-06-10T06:38:50;20.00;96.80
19654;DHT22;9975;48.046;7.804;2023-06-10T06:41:16;20.10;96.50
19654;DHT22;9975;48.046;7.804;2023-06-10T06:43:41;20.30;95.90
19654;DHT22;9975;48.046;7.804;2023-06-10T06:46:08;20.30;95.30
19654;DHT22;9975;48.046;7.804;2023-06-10T06:48:34;20.40;95.00
19654;DHT22;9975;48.046;7.804;2023-06-10T06:50:59;20.50;94.50
19654;DHT22;9975;48.046;7.804;2023-06-10T06:53:25;20.60;94.10
19654;DHT22;9975;48.046;7.804;2023-06-10T06:55:51;20.70;93.90
19654;DHT22;9975;48.046;7.804;2023-06-10T06:58:16;20.60;94.20
19654;DHT22;9975;48.046;7.804;2023-06-10T07:00:42;20.70;94.20
19654;DHT22;9975;48.046;7.804;2023-06-10T07:03:08;20.80;94.20
19654;DHT22;9975;48.046;7.804;2023-06-10T07:05:33;21.00;93.50
19654;DHT22;9975;48.046;7.804;2023-06-10T07:07:59;21.10;93.10
19654;DHT22;9975;48.046;7.804;2023-06-10T07:10:25;21.20;92.50
19654;DHT22;9975;48.046;7.804;2023-06-10T07:12:51;21.30;92.20
19654;DHT22;9975;48.046;7.804;2023-06-10T07:15:17;21.40;91.60
19654;DHT22;9975;48.046;7.804;2023-06-10T07:17:43;21.50;91.50
19654;DHT22;9975;48.046;7.804;2023-06-10T07:20:09;21.70;91.20
19654;DHT22;9975;48.046;7.804;2023-06-10T07:22:35;21.80;90.50
19654;DHT22;9975;48.046;7.804;2023-06-10T07:25:01;22.00;90.70
19654;DHT22;9975;48.046;7.804;2023-06-10T07:27:26;22.10;90.40
19654;DHT22;9975;48.046;7.804;2023-06-10T07:29:52;22.20;89.90
19654;DHT22;9975;48.046;7.804;2023-06-10T07:32:18;22.20;90.10
19654;DHT22;9975;48.046;7.804;2023-06-10T07:34:46;22.40;88.50
19654;DHT22;9975;48.046;7.804;2023-06-10T07:37:11;22.70;87.50
19654;DHT22;9975;48.046;7.804;2023-06-10T07:39:37;22.80;85.00
19654;DHT22;9975;48.046;7.804;2023-06-10T07:42:02;22.70;84.90
19654;DHT22;9975;48.046;7.804;2023-06-10T07:44:28;22.80;84.00
19654;DHT22;9975;48.046;7.804;2023-06-10T07:46:54;22.70;82.80
19654;DHT22;9975;48.046;7.804;2023-06-10T07:49:19;22.90;83.00
19654;DHT22;9975;48.046;7.804;2023-06-10T07:51:45;23.10;82.60
19654;DHT22;9975;48.046;7.804;2023-06-10T07:54:11;23.20;81.50
19654;DHT22;9975;48.046;7.804;2023-06-10T07:56:38;23.20;81.20
19654;DHT22;9975;48.046;7.804;2023-06-10T07:59:03;23.30;81.30
19654;DHT22;9975;48.046;7.804;2023-06-10T08:01:29;23.60;79.40
19654;DHT22;9975;48.046;7.804;2023-06-10T08:03:55;23.90;76.60
19654;DHT22;9975;48.046;7.804;2023-06-10T08:06:21;24.00;76.10
19654;DHT22;9975;48.046;7.804;2023-06-10T08:08:46;24.10;74.20
19654;DHT22;9975;48.046;7.804;2023-06-10T08:11:12;24.10;71.40
19654;DHT22;9975;48.046;7.804;2023-06-10T08:13:38;23.90;71.90
19654;DHT22;9975;48.046;7.804;2023-06-10T08:16:05;23.90;73.30
19654;DHT22;9975;48.046;7.804;2023-06-10T08:18:31;24.20;71.80
19654;DHT22;9975;48.046;7.804;2023-06-10T08:20:57;24.40;71.20
19654;DHT22;9975;48.046;7.804;2023-06-10T08:23:22;24.30;70.50
19654;DHT22;9975;48.046;7.804;2023-06-10T08:25:48;24.40;71.50
19654;DHT22;9975;48.046;7.804;2023-06-10T08:28:14;24.70;69.90
19654;DHT22;9975;48.046;7.804;2023-06-10T08:30:40;24.80;69.90
19654;DHT22;9975;48.046;7.804;2023-06-10T08:33:05;24.90;65.70
19654;DHT22;9975;48.046;7.804;2023-06-10T08:35:31;25.20;64.30
19654;DHT22;9975;48.046;7.804;2023-06-10T08:37:57;25.60;62.30
19654;DHT22;9975;48.046;7.804;2023-06-10T08:40:22;25.00;62.10
19654;DHT22;9975;48.046;7.804;2023-06-10T08:43:05;25.00;62.90
19654;DHT22;9975;48.046;7.804;2023-06-10T08:45:31;25.40;63.70
19654;DHT22;9975;48.046;7.804;2023-06-10T08:47:57;25.50;63.00
19654;DHT22;9975;48.046;7.804;2023-06-10T08:50:25;25.40;61.80
19654;DHT22;9975;48.046;7.804;2023-06-10T08:52:57;25.60;62.40
19654;DHT22;9975;48.046;7.804;2023-06-10T08:55:29;25.30;62.00
19654;DHT22;9975;48.046;7.804;2023-06-10T08:57:55;25.40;62.50
19654;DHT22;9975;48.046;7.804;2023-06-10T09:00:21;25.60;61.00
19654;DHT22;9975;48.046;7.804;2023-06-10T09:02:47;26.00;60.60
19654;DHT22;9975;48.046;7.804;2023-06-10T09:05:14;26.20;58.70
19654;DHT22;9975;48.046;7.804;2023-06-10T09:07:40;26.20;58.50
19654;DHT22;9975;48.046;7.804;2023-06-10T09:10:06;26.20;59.70
19654;DHT22;9975;48.046;7.804;2023-06-10T09:12:33;26.60;58.70
19654;DHT22;9975;48.046;7.804;2023-06-10T09:15:01;26.50;58.30
19654;DHT22;9975;48.046;7.804;2023-06-10T09:17:27;26.50;56.80
19654;DHT22;9975;48.046;7.804;2023-06-10T09:19:53;26.30;57.60
19654;DHT22;9975;48.046;7.804;2023-06-10T09:22:24;26.40;57.10
19654;DHT22;9975;48.046;7.804;2023-06-10T09:24:50;26.80;57.20
19654;DHT22;9975;48.046;7.804;2023-06-10T09:27:16;27.20;55.50
19654;DHT22;9975;48.046;7.804;2023-06-10T09:32:12;27.30;53.00
19654;DHT22;9975;48.046;7.804;2023-06-10T09:34:38;27.30;52.20
19654;DHT22;9975;48.046;7.804;2023-06-10T09:37:03;27.60;52.20
19654;DHT22;9975;48.046;7.804;2023-06-10T09:39:29;27.90;51.50
19654;DHT22;9975;48.046;7.804;2023-06-10T09:41:55;28.10;49.60
19654;DHT22;9975;48.046;7.804;2023-06-10T09:44:21;27.90;48.50
19654;DHT22;9975;48.046;7.804;2023-06-10T09:46:48;27.80;48.90
19654;DHT22;9975;48.046;7.804;2023-06-10T09:49:18;28.00;49.30
19654;DHT22;9975;48.046;7.804;2023-06-10T09:51:54;28.50;47.40
19654;DHT22;9975;48.046;7.804;2023-06-10T09:54:21;28.70;47.30
19654;DHT22;9975;48.046;7.804;2023-06-10T09:56:51;29.10;45.10
19654;DHT22;9975;48.046;7.804;2023-06-10T09:59:30;29.20;44.00
19654;DHT22;9975;48.046;7.804;2023-06-10T10:02:00;29.00;43.70
19654;DHT22;9975;48.046;7.804;2023-06-10T10:04:26;29.10;44.10
19654;DHT22;9975;48.046;7.804;2023-06-10T10:06:52;29.10;41.90
19654;DHT22;9975;48.046;7.804;2023-06-10T10:09:18;28.90;43.00
19654;DHT22;9975;48.046;7.804;2023-06-10T10:11:44;29.10;42.50
19654;DHT22;9975;48.046;7.804;2023-06-10T10:14:12;29.30;41.70
19654;DHT22;9975;48.046;7.804;2023-06-10T10:16:41;29.10;40.80
19654;DHT22;9975;48.046;7.804;2023-06-10T10:19:20;29.40;39.90
19654;DHT22;9975;48.046;7.804;2023-06-10T10:22:03;29.40;40.50
19654;DHT22;9975;48.046;7.804;2023-06-10T10:24:41;29.60;39.80
19654;DHT22;9975;48.046;7.804;2023-06-10T10:27:17;30.10;38.40
19654;DHT22;9975;48.046;7.804;2023-06-10T10:29:45;30.30;36.60
19654;DHT22;9975;48.046;7.804;2023-06-10T10:32:12;30.40;35.70
19654;DHT22;9975;48.046;7.804;2023-06-10T10:37:23;30.80;35.60
19654;DHT22;9975;48.046;7.804;2023-06-10T10:39:50;30.20;34.20
19654;DHT22;9975;48.046;7.804;2023-06-10T10:42:16;29.80;36.20
19654;DHT22;9975;48.046;7.804;2023-06-10T10:44:42;29.50;36.30
19654;DHT22;9975;48.046;7.804;2023-06-10T10:47:09;30.20;36.10
19654;DHT22;9975;48.046;7.804;2023-06-10T10:49:36;30.50;34.00
19654;DHT22;9975;48.046;7.804;2023-06-10T10:52:03;30.80;32.70
19654;DHT22;9975;48.046;7.804;2023-06-10T10:57:20;31.40;31.40
19654;DHT22;9975;48.046;7.804;2023-06-10T10:59:56;31.20;30.00
19654;DHT22;9975;48.046;7.804;2023-06-10T11:02:45;31.10;30.60
19654;DHT22;9975;48.046;7.804;2023-06-10T11:05:14;31.50;29.50
19654;DHT22;9975;48.046;7.804;2023-06-10T11:07:41;31.90;29.70
19654;DHT22;9975;48.046;7.804;2023-06-10T11:10:16;32.20;28.40
19654;DHT22;9975;48.046;7.804;2023-06-10T11:12:51;32.60;27.70
19654;DHT22;9975;48.046;7.804;2023-06-10T11:15:28;32.30;27.30
19654;DHT22;9975;48.046;7.804;2023-06-10T11:18:12;32.40;28.00
19654;DHT22;9975;48.046;7.804;2023-06-10T11:23:34;32.30;26.60
19654;DHT22;9975;48.046;7.804;2023-06-10T11:31:33;31.50;27.00
19654;DHT22;9975;48.046;7.804;2023-06-10T11:34:03;32.10;26.80
19654;DHT22;9975;48.046;7.804;2023-06-10T11:36:30;32.70;26.10
19654;DHT22;9975;48.046;7.804;2023-06-10T11:39:01;32.80;25.00
19654;DHT22;9975;48.046;7.804;2023-06-10T11:41:28;32.30;25.90
19654;DHT22;9975;48.046;7.804;2023-06-10T11:43:55;32.30;25.40
19654;DHT22;9975;48.046;7.804;2023-06-10T11:46:24;32.70;25.30
19654;DHT22;9975;48.046;7.804;2023-06-10T11:48:56;32.30;25.20
19654;DHT22;9975;48.046;7.804;2023-06-10T11:51:25;32.30;25.00
19654;DHT22;9975;48.046;7.804;2023-06-10T11:53:51;32.10;25.10
19654;DHT22;9975;48.046;7.804;2023-06-10T11:56:21;32.80;25.00
19654;DHT22;9975;48.046;7.804;2023-06-10T11:58:53;32.80;24.20
19654;DHT22;9975;48.046;7.804;2023-06-10T12:01:21;31.90;24.50
19654;DHT22;9975;48.046;7.804;2023-06-10T12:03:47;32.10;24.80
19654;DHT22;9975;48.046;7.804;2023-06-10T12:06:13;31.90;24.30
19654;DHT22;9975;48.046;7.804;2023-06-10T12:08:43;31.30;25.40
19654;DHT22;9975;48.046;7.804;2023-06-10T12:11:09;31.50;24.90
19654;DHT22;9975;48.046;7.804;2023-06-10T12:13:34;32.00;25.40
19654;DHT22;9975;48.046;7.804;2023-06-10T12:16:08;32.50;24.90
19654;DHT22;9975;48.046;7.804;2023-06-10T12:18:34;33.00;24.10
19654;DHT22;9975;48.046;7.804;2023-06-10T12:20:59;33.30;22.90
19654;DHT22;9975;48.046;7.804;2023-06-10T12:23:25;33.60;22.40
19654;DHT22;9975;48.046;7.804;2023-06-10T12:25:52;33.60;21.70
19654;DHT22;9975;48.046;7.804;2023-06-10T12:28:22;33.30;22.10
19654;DHT22;9975;48.046;7.804;2023-06-10T12:30:48;33.00;22.50
19654;DHT22;9975;48.046;7.804;2023-06-10T12:33:21;32.90;22.30
19654;DHT22;9975;48.046;7.804;2023-06-10T12:35:48;32.90;22.80
19654;DHT22;9975;48.046;7.804;2023-06-10T12:38:18;33.10;22.20
19654;DHT22;9975;48.046;7.804;2023-06-10T12:40:47;33.20;22.20
19654;DHT22;9975;48.046;7.804;2023-06-10T12:43:13;33.60;21.80
19654;DHT22;9975;48.046;7.804;2023-06-10T12:45:40;33.80;20.90
19654;DHT22;9975;48.046;7.804;2023-06-10T12:48:12;34.00;20.90
19654;DHT22;9975;48.046;7.804;2023-06-10T12:50:42;34.20;20.10
19654;DHT22;9975;48.046;7.804;2023-06-10T12:53:08;33.80;18.80
19654;DHT22;9975;48.046;7.804;2023-06-10T12:55:35;33.60;20.10
19654;DHT22;9975;48.046;7.804;2023-06-10T12:58:01;33.50;19.30
19654;DHT22;9975;48.046;7.804;2023-06-10T13:00:27;33.30;19.90
19654;DHT22;9975;48.046;7.804;2023-06-10T13:02:56;32.60;19.80
19654;DHT22;9975;48.046;7.804;2023-06-10T13:05:21;33.10;19.90
19654;DHT22;9975;48.046;7.804;2023-06-10T13:07:47;33.00;19.90
19654;DHT22;9975;48.046;7.804;2023-06-10T13:10:14;32.70;20.20
19654;DHT22;9975;48.046;7.804;2023-06-10T13:12:40;32.00;21.10
19654;DHT22;9975;48.046;7.804;2023-06-10T13:15:06;32.00;21.90
19654;DHT22;9975;48.046;7.804;2023-06-10T13:17:32;32.20;21.40
19654;DHT22;9975;48.046;7.804;2023-06-10T13:19:59;32.30;21.40
19654;DHT22;9975;48.046;7.804;2023-06-10T13:22:26;32.50;21.50
19654;DHT22;9975;48.046;7.804;2023-06-10T13:24:52;32.50;20.70
19654;DHT22;9975;48.046;7.804;2023-06-10T13:27:17;32.30;20.80
19654;DHT22;9975;48.046;7.804;2023-06-10T13:29:43;32.20;20.60
19654;DHT22;9975;48.046;7.804;2023-06-10T13:32:09;31.80;20.40
19654;DHT22;9975;48.046;7.804;2023-06-10T13:34:35;31.60;20.90
19654;DHT22;9975;48.046;7.804;2023-06-10T13:37:01;31.50;21.30
19654;DHT22;9975;48.046;7.804;2023-06-10T13:39:29;31.50;24.50
19654;DHT22;9975;48.046;7.804;2023-06-10T13:41:54;31.10;25.60
19654;DHT22;9975;48.046;7.804;2023-06-10T13:44:20;30.90;26.50
19654;DHT22;9975;48.046;7.804;2023-06-10T13:46:46;30.90;27.00
19654;DHT22;9975;48.046;7.804;2023-06-10T13:49:12;30.70;27.30
19654;DHT22;9975;48.046;7.804;2023-06-10T13:51:37;30.30;26.30
19654;DHT22;9975;48.046;7.804;2023-06-10T13:54:03;30.10;28.60
19654;DHT22;9975;48.046;7.804;2023-06-10T13:56:29;30.20;29.10
19654;DHT22;9975;48.046;7.804;2023-06-10T13:58:54;30.30;29.20
19654;DHT22;9975;48.046;7.804;2023-06-10T14:01:20;30.80;28.20
19654;DHT22;9975;48.046;7.804;2023-06-10T14:03:46;31.00;25.50
19654;DHT22;9975;48.046;7.804;2023-06-10T14:06:11;31.30;24.70
19654;DHT22;9975;48.046;7.804;2023-06-10T14:08:44;31.50;23.30
19654;DHT22;9975;48.046;7.804;2023-06-10T14:11:09;31.50;23.50
19654;DHT22;9975;48.046;7.804;2023-06-10T14:13:35;31.40;24.20
19654;DHT22;9975;48.046;7.804;2023-06-10T14:16:04;31.50;24.90
19654;DHT22;9975;48.046;7.804;2023-06-10T14:18:30;31.50;24.50
19654;DHT22;9975;48.046;7.804;2023-06-10T14:20:56;31.20;24.40
19654;DHT22;9975;48.046;7.804;2023-06-10T14:23:21;31.10;24.10
19654;DHT22;9975;48.046;7.804;2023-06-10T14:25:47;31.30;24.00
19654;DHT22;9975;48.046;7.804;2023-06-10T14:28:13;31.10;24.20
19654;DHT22;9975;48.046;7.804;2023-06-10T14:30:38;30.70;24.40
19654;DHT22;9975;48.046;7.804;2023-06-10T14:33:04;30.40;25.00
19654;DHT22;9975;48.046;7.804;2023-06-10T14:35:30;30.60;25.60
19654;DHT22;9975;48.046;7.804;2023-06-10T14:37:55;30.80;25.00
19654;DHT22;9975;48.046;7.804;2023-06-10T14:40:21;30.90;25.20
19654;DHT22;9975;48.046;7.804;2023-06-10T14:42:48;31.00;28.40
19654;DHT22;9975;48.046;7.804;2023-06-10T14:45:14;31.20;27.40
19654;DHT22;9975;48.046;7.804;2023-06-10T14:47:40;31.30;28.50
19654;DHT22;9975;48.046;7.804;2023-06-10T14:50:06;31.60;23.80
19654;DHT22;9975;48.046;7.804;2023-06-10T14:52:32;32.10;23.80
19654;DHT22;9975;48.046;7.804;2023-06-10T14:54:57;32.10;22.10
19654;DHT22;9975;48.046;7.804;2023-06-10T14:57:23;32.10;24.70
19654;DHT22;9975;48.046;7.804;2023-06-10T14:59:49;32.00;26.10
19654;DHT22;9975;48.046;7.804;2023-06-10T15:02:14;31.90;24.70
19654;DHT22;9975;48.046;7.804;2023-06-10T15:04:40;32.10;25.80
19654;DHT22;9975;48.046;7.804;2023-06-10T15:07:06;32.30;25.80
19654;DHT22;9975;48.046;7.804;2023-06-10T15:09:31;32.50;24.70
19654;DHT22;9975;48.046;7.804;2023-06-10T15:11:58;32.60;24.60
19654;DHT22;9975;48.046;7.804;2023-06-10T15:14:25;32.80;23.20
19654;DHT22;9975;48.046;7.804;2023-06-10T15:16:51;32.80;22.50
19654;DHT22;9975;48.046;7.804;2023-06-10T15:19:17;32.70;23.10
19654;DHT22;9975;48.046;7.804;2023-06-10T15:21:42;32.60;26.10
19654;DHT22;9975;48.046;7.804;2023-06-10T15:24:08;32.40;27.10
19654;DHT22;9975;48.046;7.804;2023-06-10T15:26:34;32.20;26.40
19654;DHT22;9975;48.046;7.804;2023-06-10T15:28:59;32.10;26.90
19654;DHT22;9975;48.046;7.804;2023-06-10T15:31:30;32.10;25.90
19654;DHT22;9975;48.046;7.804;2023-06-10T15:33:57;32.00;24.50
19654;DHT22;9975;48.046;7.804;2023-06-10T15:36:23;31.50;24.90
19654;DHT22;9975;48.046;7.804;2023-06-10T15:38:48;31.60;25.40
19654;DHT22;9975;48.046;7.804;2023-06-10T15:41:14;31.60;25.50
19654;DHT22;9975;48.046;7.804;2023-06-10T15:43:40;31.50;25.30
19654;DHT22;9975;48.046;7.804;2023-06-10T15:46:07;31.60;25.70
19654;DHT22;9975;48.046;7.804;2023-06-10T15:48:33;31.90;25.90
19654;DHT22;9975;48.046;7.804;2023-06-10T15:50:58;32.00;26.10
19654;DHT22;9975;48.046;7.804;2023-06-10T15:53:24;32.00;26.60
19654;DHT22;9975;48.046;7.804;2023-06-10T15:55:49;31.90;26.60
19654;DHT22;9975;48.046;7.804;2023-06-10T15:58:15;32.10;26.00
19654;DHT22;9975;48.046;7.804;2023-06-10T16:00:41;31.80;26.10
19654;DHT22;9975;48.046;7.804;2023-06-10T16:03:07;31.60;26.60
19654;DHT22;9975;48.046;7.804;2023-06-10T16:05:32;31.50;26.80
19654;DHT22;9975;48.046;7.804;2023-06-10T16:07:58;31.10;26.60
19654;DHT22;9975;48.046;7.804;2023-06-10T16:10:24;30.80;27.20
19654;DHT22;9975;48.046;7.804;2023-06-10T16:12:50;30.60;28.40
19654;DHT22;9975;48.046;7.804;2023-06-10T16:15:15;30.30;28.10
19654;DHT22;9975;48.046;7.804;2023-06-10T16:17:41;30.10;28.00
19654;DHT22;9975;48.046;7.804;2023-06-10T16:20:08;29.90;27.30
19654;DHT22;9975;48.046;7.804;2023-06-10T16:22:34;29.60;27.80
19654;DHT22;9975;48.046;7.804;2023-06-10T16:25:00;29.50;28.10
19654;DHT22;9975;48.046;7.804;2023-06-10T16:27:26;29.60;27.40
19654;DHT22;9975;48.046;7.804;2023-06-10T16:29:52;29.60;27.30
19654;DHT22;9975;48.046;7.804;2023-06-10T16:32:18;29.60;27.40
19654;DHT22;9975;48.046;7.804;2023-06-10T16:34:44;29.70;27.20
19654;DHT22;9975;48.046;7.804;2023-06-10T16:37:10;29.80;26.90
19654;DHT22;9975;48.046;7.804;2023-06-10T16:39:36;29.80;26.90
19654;DHT22;9975;48.046;7.804;2023-06-10T16:42:02;29.80;27.00
19654;DHT22;9975;48.046;7.804;2023-06-10T16:44:28;29.80;26.60
19654;DHT22;9975;48.046;7.804;2023-06-10T16:46:53;29.90;26.70
19654;DHT22;9975;48.046;7.804;2023-06-10T16:49:19;29.90;26.90
19654;DHT22;9975;48.046;7.804;2023-06-10T16:51:45;30.10;27.20
19654;DHT22;9975;48.046;7.804;2023-06-10T16:54:10;30.20;26.90
19654;DHT22;9975;48.046;7.804;2023-06-10T16:56:36;30.20;26.10
19654;DHT22;9975;48.046;7.804;2023-06-10T16:59:02;30.30;26.30
19654;DHT22;9975;48.046;7.804;2023-06-10T17:01:27;30.20;26.20
19654;DHT22;9975;48.046;7.804;2023-06-10T17:03:53;30.20;26.10
19654;DHT22;9975;48.046;7.804;2023-06-10T17:06:18;29.80;26.90
19654;DHT22;9975;48.046;7.804;2023-06-10T17:08:45;29.80;27.30
19654;DHT22;9975;48.046;7.804;2023-06-10T17:11:11;29.90;27.40
19654;DHT22;9975;48.046;7.804;2023-06-10T17:13:36;29.90;27.80
19654;DHT22;9975;48.046;7.804;2023-06-10T17:16:02;30.00;27.40
19654;DHT22;9975;48.046;7.804;2023-06-10T17:18:28;30.10;27.10
19654;DHT22;9975;48.046;7.804;2023-06-10T17:20:53;30.30;27.00
19654;DHT22;9975;48.046;7.804;2023-06-10T17:23:20;30.20;26.60
19654;DHT22;9975;48.046;7.804;2023-06-10T17:25:45;30.40;26.80
19654;DHT22;9975;48.046;7.804;2023-06-10T17:28:11;30.50;26.00
19654;DHT22;9975;48.046;7.804;2023-06-10T17:30:37;30.60;26.20
19654;DHT22;9975;48.046;7.804;2023-06-10T17:33:03;30.80;26.00
19654;DHT22;9975;48.046;7.804;2023-06-10T17:35:28;30.80;25.90
19654;DHT22;9975;48.046;7.804;2023-06-10T17:37:54;30.90;26.20
19654;DHT22;9975;48.046;7.804;2023-06-10T17:40:19;30.70;25.80
19654;DHT22;9975;48.046;7.804;2023-06-10T17:42:45;30.60;26.20
19654;DHT22;9975;48.046;7.804;2023-06-10T17:45:11;30.50;26.30
19654;DHT22;9975;48.046;7.804;2023-06-10T17:47:37;30.30;26.30
19654;DHT22;9975;48.046;7.804;2023-06-10T17:50:03;29.90;27.20
19654;DHT22;9975;48.046;7.804;2023-06-10T17:52:28;29.90;27.80